createdAt,value
2018-03-28T02:35:33.986Z,1.66
2018-03-28T02:38:04.255Z,1.61
2018-03-28T02:40:34.220Z,1.60
2018-03-28T02:43:04.233Z,1.58
2018-03-28T02:45:34.341Z,1.63
2018-03-28T02:48:04.510Z,1.60
2018-03-28T02:50:34.801Z,1.59
2018-03-28T02:53:04.802Z,1.56
2018-03-28T02:55:34.776Z,1.57
2018-03-28T02:58:04.870Z,1.56
2018-03-28T03:00:34.816Z,1.54
2018-03-28T03:03:04.781Z,1.52
2018-03-28T03:05:34.777Z,1.49
2018-03-28T03:08:04.841Z,1.47
2018-03-28T03:10:34.832Z,1.51
2018-03-28T03:13:04.922Z,1.52
2018-03-28T03:15:34.940Z,1.58
2018-03-28T03:18:05.332Z,1.57
2018-03-28T03:20:35.308Z,1.63
2018-03-28T03:23:05.309Z,1.63
2018-03-28T03:25:35.610Z,1.72
2018-03-28T03:28:05.625Z,1.68
2018-03-28T03:30:35.760Z,1.68
2018-03-28T03:33:05.759Z,1.83
2018-03-28T03:35:36.251Z,1.84
2018-03-28T03:38:06.270Z,2.03
2018-03-28T03:40:36.373Z,2.02
2018-03-28T03:43:06.711Z,1.96
2018-03-28T03:45:36.814Z,1.91
2018-03-28T03:50:40.807Z,1.85
2018-03-28T03:53:10.931Z,1.99
2018-03-28T03:55:41.043Z,1.88
2018-03-28T03:58:11.122Z,1.82
2018-03-28T04:00:41.310Z,1.80
2018-03-28T04:03:15.049Z,1.78
2018-03-28T04:05:46.696Z,1.79
2018-03-28T04:08:17.997Z,1.79
2018-03-28T04:10:48.442Z,1.88
2018-03-28T04:13:18.423Z,1.88
2018-03-28T04:15:48.501Z,1.96
2018-03-28T04:18:18.542Z,1.99
2018-03-28T04:20:48.685Z,2.13
2018-03-28T04:23:18.790Z,2.20
2018-03-28T04:25:48.975Z,2.24
2018-03-28T04:28:19.028Z,2.20
2018-03-28T04:30:49.156Z,2.22
2018-03-28T04:33:20.498Z,2.22
2018-03-28T04:35:50.661Z,2.22
2018-03-28T04:38:20.660Z,2.26
2018-03-28T04:40:50.665Z,2.28
2018-03-28T04:43:23.577Z,2.32
2018-03-28T04:45:56.906Z,2.31
2018-03-28T04:48:30.340Z,2.31
2018-03-28T04:51:00.429Z,2.34
2018-03-28T04:53:30.343Z,2.37
2018-03-28T04:56:01.018Z,2.43
2018-03-28T04:58:31.163Z,2.44
2018-03-28T05:01:01.952Z,2.52
2018-03-28T05:03:32.025Z,2.48
2018-03-28T05:06:06.570Z,2.62
2018-03-28T11:52:23.657Z,13.65
2018-03-28T11:58:56.009Z,10.35
2018-03-28T12:01:33.778Z,11.33
2018-03-28T12:04:04.006Z,12.60
2018-03-28T12:06:34.850Z,12.06
2018-03-28T12:09:04.737Z,11.94
2018-03-28T12:26:26.172Z,11.09
2018-03-28T12:40:36.371Z,12.12
2018-03-28T12:43:33.787Z,11.90
2018-03-28T12:56:07.095Z,16.11
2018-03-28T13:19:49.458Z,17.15
2018-03-28T13:22:27.080Z,17.60
2018-03-28T13:27:38.150Z,15.28
2018-03-28T13:30:08.813Z,14.76
2018-03-28T13:35:48.910Z,14.81
2018-03-28T13:38:18.821Z,15.16
2018-03-28T13:40:48.475Z,14.65
2018-03-28T13:43:25.769Z,14.84
2018-03-28T13:46:10.301Z,12.41
2018-03-28T13:54:11.195Z,12.38
2018-03-28T13:56:41.800Z,13.14
2018-03-28T14:01:50.231Z,14.10
2018-03-28T14:10:45.713Z,13.70
2018-03-28T14:13:18.188Z,14.40
2018-03-28T14:18:40.890Z,12.41
2018-03-28T14:28:13.335Z,13.20
2018-03-28T14:31:34.451Z,13.16
2018-03-28T14:45:16.740Z,12.11
2018-03-28T14:47:48.676Z,12.15
2018-03-28T14:50:22.701Z,12.05
2018-03-28T14:53:04.711Z,11.97
2018-03-28T14:55:48.927Z,11.95
2018-03-28T15:04:06.645Z,11.04
2018-03-28T15:10:12.834Z,10.32
2018-03-28T15:15:20.475Z,10.07
2018-03-28T15:27:36.443Z,9.68
2018-03-28T15:35:40.633Z,9.67
2018-03-28T15:38:18.216Z,9.73
2018-03-28T15:40:52.904Z,9.79
2018-03-28T15:46:19.163Z,9.97
2018-03-28T15:53:59.414Z,9.66
2018-03-28T15:59:43.213Z,10.04
2018-03-28T16:05:18.500Z,10.06
2018-03-28T16:07:49.707Z,10.02
2018-03-28T16:10:19.704Z,10.07
2018-03-28T16:12:54.468Z,9.98
2018-03-28T16:15:32.326Z,9.91
2018-03-28T16:18:02.771Z,9.77
2018-03-28T16:20:33.302Z,9.85
2018-03-28T16:31:51.086Z,9.67
2018-03-28T16:34:20.954Z,9.66
2018-03-28T16:36:51.024Z,9.63
2018-03-28T16:39:23.084Z,9.62
2018-03-28T16:41:57.082Z,9.60
2018-03-28T16:44:26.994Z,9.57
2018-03-28T16:49:32.634Z,9.52
2018-03-28T16:52:02.682Z,9.38
2018-03-28T16:54:34.345Z,9.35
2018-03-28T16:57:04.466Z,9.24
2018-03-28T16:59:34.110Z,9.13
2018-03-28T17:02:04.019Z,9.08
2018-03-28T17:04:34.209Z,8.98
2018-03-28T17:07:05.626Z,8.86
2018-03-28T17:09:35.601Z,8.84
2018-03-28T17:12:09.080Z,8.86
2018-03-28T17:14:40.487Z,8.73
2018-03-28T17:17:10.605Z,8.63
2018-03-28T17:19:40.598Z,8.62
2018-03-28T17:22:10.827Z,8.58
2018-03-28T17:24:41.178Z,8.58
2018-03-28T17:27:11.869Z,8.58
2018-03-28T17:29:41.852Z,8.59
2018-03-28T17:32:14.074Z,8.58
2018-03-28T17:34:44.199Z,8.62
2018-03-28T17:37:14.124Z,8.62
2018-03-28T17:39:43.822Z,8.62
2018-03-28T17:42:13.956Z,8.55
2018-03-28T17:44:43.958Z,8.53
2018-03-28T17:47:14.200Z,8.43
2018-03-28T17:49:44.267Z,8.38
2018-03-28T17:52:14.234Z,8.32
2018-03-28T17:57:18.241Z,8.27
2018-03-28T17:59:52.025Z,8.25
2018-03-28T18:02:22.149Z,8.27
2018-03-28T18:04:52.068Z,8.26
2018-03-28T18:07:22.180Z,8.30
2018-03-28T18:09:52.461Z,8.27
2018-03-28T18:12:22.436Z,8.24
2018-03-28T18:14:52.554Z,8.18
2018-03-28T18:17:23.061Z,8.17
2018-03-28T18:19:53.816Z,8.16
2018-03-28T18:22:23.661Z,8.14
2018-03-28T18:24:53.540Z,8.10
2018-03-28T18:27:23.370Z,8.07
2018-03-28T18:29:54.093Z,8.00
2018-03-28T18:32:24.736Z,8.01
2018-03-28T18:34:54.593Z,8.13
2018-03-28T18:37:24.659Z,8.00
2018-03-28T18:40:07.107Z,7.98
2018-03-28T18:42:39.006Z,8.02
2018-03-28T18:45:09.004Z,8.05
2018-03-28T18:47:39.238Z,7.98
2018-03-28T18:50:09.235Z,7.93
2018-03-28T18:52:39.291Z,7.93
2018-03-28T18:55:09.522Z,7.93
2018-03-28T18:57:39.691Z,7.97
2018-03-28T19:00:09.624Z,7.91
2018-03-28T19:02:39.654Z,7.87
2018-03-28T19:05:09.527Z,7.84
2018-03-28T19:07:39.423Z,7.89
2018-03-28T19:10:09.275Z,7.90
2018-03-28T19:12:39.112Z,7.86
2018-03-28T19:15:08.980Z,7.81
2018-03-28T19:17:38.833Z,7.89
2018-03-28T19:20:08.684Z,7.95
2018-03-28T19:22:38.557Z,7.82
2018-03-28T19:25:08.400Z,7.75
2018-03-28T19:27:38.271Z,7.75
2018-03-28T19:30:08.240Z,7.73
2018-03-28T19:32:38.085Z,7.69
2018-03-28T19:35:08.023Z,7.66
2018-03-28T19:37:37.896Z,7.65
2018-03-28T19:40:07.740Z,7.64
2018-03-28T19:42:37.704Z,7.63
2018-03-28T19:45:07.606Z,7.66
2018-03-28T19:47:37.468Z,7.64
2018-03-28T19:50:07.381Z,7.69
2018-03-28T19:52:37.242Z,7.67
2018-03-28T19:55:06.612Z,7.60
2018-03-28T19:57:36.458Z,7.56
2018-03-28T20:00:06.426Z,7.66
2018-03-28T20:02:36.272Z,7.73
2018-03-28T20:05:06.941Z,7.71
2018-03-28T20:07:36.812Z,7.64
2018-03-28T20:10:06.649Z,7.59
2018-03-28T20:12:36.766Z,7.55
2018-03-28T20:15:06.865Z,7.56
2018-03-28T20:17:36.757Z,7.56
2018-03-28T20:20:06.658Z,7.54
2018-03-28T20:22:36.571Z,7.52
2018-03-28T20:25:06.630Z,7.51
2018-03-28T20:27:36.485Z,7.57
2018-03-28T20:30:06.439Z,7.54
2018-03-28T20:32:36.375Z,7.50
2018-03-28T20:35:06.285Z,7.49
2018-03-28T20:37:36.480Z,7.48
2018-03-28T20:40:06.586Z,7.53
2018-03-28T20:42:36.477Z,7.47
2018-03-28T20:45:06.322Z,7.48
2018-03-28T20:47:36.176Z,7.48
2018-03-28T20:50:05.893Z,7.61
2018-03-28T20:52:35.794Z,7.63
2018-03-28T20:55:05.854Z,7.63
2018-03-28T20:57:35.386Z,7.64
2018-03-28T21:00:04.872Z,7.55
2018-03-28T21:02:35.228Z,7.53
2018-03-28T21:05:04.967Z,7.49
2018-03-28T21:07:51.353Z,7.48
2018-03-28T21:10:27.628Z,7.48
2018-03-28T21:12:57.910Z,7.46
2018-03-28T21:15:27.803Z,7.43
2018-03-28T21:17:57.985Z,7.42
2018-03-28T21:20:28.076Z,7.40
2018-03-28T21:22:58.592Z,7.39
2018-03-28T21:25:28.761Z,7.42
2018-03-28T21:27:58.816Z,7.40
2018-03-28T21:30:28.381Z,7.38
2018-03-28T21:32:58.410Z,7.41
2018-03-28T21:35:28.440Z,7.47
2018-03-28T21:37:58.328Z,7.44
2018-03-28T21:40:36.505Z,7.38
2018-03-28T21:43:08.705Z,7.37
2018-03-28T21:45:38.788Z,7.36
2018-03-28T21:48:08.604Z,7.37
2018-03-28T21:50:38.716Z,7.34
2018-03-28T21:53:08.682Z,7.33
2018-03-28T21:55:38.651Z,7.33
2018-03-28T21:58:09.077Z,7.33
2018-03-28T22:00:39.041Z,7.33
2018-03-28T22:03:08.913Z,7.33
2018-03-28T22:05:38.964Z,7.35
2018-03-28T22:08:08.841Z,7.38
2018-03-28T22:10:38.612Z,7.43
2018-03-28T22:13:08.551Z,7.36
2018-03-28T22:15:38.494Z,7.33
2018-03-28T22:18:08.493Z,7.33
2018-03-28T22:20:38.371Z,7.27
2018-03-28T22:23:08.311Z,7.31
2018-03-28T22:25:38.194Z,7.28
2018-03-28T22:28:08.264Z,7.24
2018-03-28T22:30:38.158Z,7.24
2018-03-28T22:33:08.077Z,7.22
2018-03-28T22:35:38.183Z,7.20
2018-03-28T22:38:08.268Z,7.18
2018-03-28T22:40:38.174Z,7.23
2018-03-28T22:43:08.169Z,7.32
2018-03-28T22:45:38.192Z,7.27
2018-03-28T22:48:08.353Z,7.34
2018-03-28T22:50:38.293Z,7.33
2018-03-28T22:53:08.229Z,7.32
2018-03-28T22:55:38.306Z,7.40
2018-03-28T22:58:09.228Z,7.38
2018-03-28T23:00:39.161Z,7.44
2018-03-28T23:03:09.081Z,7.47
2018-03-28T23:05:38.996Z,7.48
2018-03-28T23:08:08.976Z,7.44
2018-03-28T23:10:44.503Z,7.43
2018-03-28T23:13:19.975Z,7.42
2018-03-28T23:15:49.880Z,7.40
2018-03-28T23:18:19.840Z,7.34
2018-03-28T23:20:49.800Z,7.24
2018-03-28T23:23:19.709Z,7.27
2018-03-28T23:25:49.644Z,7.24
2018-03-28T23:28:19.610Z,7.21
2018-03-28T23:30:49.622Z,7.21
2018-03-28T23:33:19.548Z,7.23
2018-03-28T23:35:49.436Z,7.26
2018-03-28T23:38:19.327Z,7.25
2018-03-28T23:40:49.243Z,7.33
2018-03-28T23:43:20.046Z,7.30
2018-03-28T23:45:49.991Z,7.34
2018-03-28T23:48:19.971Z,7.33
2018-03-28T23:50:50.201Z,7.34
2018-03-28T23:53:20.197Z,7.38
2018-03-28T23:55:50.218Z,7.39
2018-03-28T23:58:20.149Z,7.38
